^^
Saratoga-Weather Station Historical Data
 
Daily Summary for March 24, 2019 Units:  English    Metric   Both
Daily Weekly Monthly Yearly Custom
  Current: High: Low: Average:
Temperature: 72.5 °F 72.5 °F 47.0 °F 58.4 °F
Dew Point: 40.1 °F 43.5 °F 24.4 °F 32.3 °F
Humidity: 31% 58% 30% 38%
Wind Speed: 4.0mph 7.0mph 0.0mph 2mph
Wind Gust: 9.0mph 15.0mph - -
WindSW - - South
Pressure: 30.10 in 30.24 in 30.10 in -
Precipitation: 0.00 in      
Historical Graphs
 
 
Tabular Data for March 24, 2019
Time Temperature Dew Point Pressure Wind Wind Speed Wind Gust Humidity Rainfall Rate (Hourly) solar
00:00 47.0 °F 33.0 °F 30.22 in Calm   1.0 mph 58% 0.00 in 0.00 W/m2
00:05 47.3 °F 32.8 °F 30.21 in Calm   2.0 mph 57% 0.00 in 0.00 W/m2
00:10 47.6 °F 32.2 °F 30.21 in Calm   2.0 mph 55% 0.00 in 0.00 W/m2
00:15 48.0 °F 31.2 °F 30.21 in East 1.0 mph 2.0 mph 52% 0.00 in 0.00 W/m2
00:20 48.7 °F 30.9 °F 30.21 in ESE 1.0 mph 3.0 mph 50% 0.00 in 0.00 W/m2
00:25 49.8 °F 30.9 °F 30.21 in SE 3.0 mph 5.0 mph 48% 0.00 in 0.00 W/m2
00:30 50.9 °F 30.9 °F 30.21 in SE 3.0 mph 6.0 mph 46% 0.00 in 0.00 W/m2
00:35 51.7 °F 29.9 °F 30.21 in ESE 3.0 mph 5.0 mph 43% 0.00 in 0.00 W/m2
00:40 52.3 °F 29.9 °F 30.21 in SE 3.0 mph 4.0 mph 42% 0.00 in 0.00 W/m2
00:45 52.5 °F 29.5 °F 30.21 in SE 2.0 mph 4.0 mph 41% 0.00 in 0.00 W/m2
00:50 52.7 °F 29.1 °F 30.21 in SE 1.0 mph 3.0 mph 40% 0.00 in 0.00 W/m2
00:55 52.9 °F 29.2 °F 30.22 in SE 1.0 mph 3.0 mph 40% 0.00 in 0.00 W/m2
01:00 52.9 °F 29.2 °F 30.22 in Calm   2.0 mph 40% 0.00 in 0.00 W/m2
01:05 52.9 °F 29.2 °F 30.22 in Calm   2.0 mph 40% 0.00 in 0.00 W/m2
01:10 52.8 °F 29.2 °F 30.22 in Calm   1.0 mph 40% 0.00 in 0.00 W/m2
01:15 52.7 °F 29.1 °F 30.22 in Calm   2.0 mph 40% 0.00 in 0.00 W/m2
01:20 52.6 °F 29.0 °F 30.22 in SE 1.0 mph 4.0 mph 40% 0.00 in 0.00 W/m2
01:25 52.5 °F 28.9 °F 30.22 in Calm   1.0 mph 40% 0.00 in 0.00 W/m2
01:30 52.5 °F 28.9 °F 30.22 in SE 1.0 mph 4.0 mph 40% 0.00 in 0.00 W/m2
01:35 52.5 °F 28.9 °F 30.22 in SE 2.0 mph 4.0 mph 40% 0.00 in 0.00 W/m2
01:40 52.6 °F 29.0 °F 30.21 in SE 3.0 mph 4.0 mph 40% 0.00 in 0.00 W/m2
01:45 52.7 °F 29.1 °F 30.21 in SE 3.0 mph 6.0 mph 40% 0.00 in 0.00 W/m2
01:50 52.7 °F 29.1 °F 30.21 in ESE 3.0 mph 7.0 mph 40% 0.00 in 0.00 W/m2
01:55 52.8 °F 28.5 °F 30.21 in SE 3.0 mph 7.0 mph 39% 0.00 in 0.00 W/m2
02:00 52.9 °F 28.6 °F 30.21 in SE 3.0 mph 5.0 mph 39% 0.00 in 0.00 W/m2
02:05 53.1 °F 28.2 °F 30.21 in SE 4.0 mph 6.0 mph 38% 0.00 in 0.00 W/m2
02:10 53.1 °F 28.2 °F 30.21 in SE 3.0 mph 8.0 mph 38% 0.00 in 0.00 W/m2
02:15 53.1 °F 28.2 °F 30.21 in SE 2.0 mph 4.0 mph 38% 0.00 in 0.00 W/m2
02:20 53.0 °F 28.1 °F 30.21 in SE 3.0 mph 5.0 mph 38% 0.00 in 0.00 W/m2
02:25 52.9 °F 28.0 °F 30.21 in SE 2.0 mph 4.0 mph 38% 0.00 in 0.00 W/m2
02:30 52.9 °F 27.3 °F 30.21 in SE 2.0 mph 5.0 mph 37% 0.00 in 0.00 W/m2
02:35 52.9 °F 26.7 °F 30.21 in SE 2.0 mph 4.0 mph 36% 0.00 in 0.00 W/m2
02:40 52.9 °F 27.3 °F 30.21 in ESE 1.0 mph 3.0 mph 37% 0.00 in 0.00 W/m2
02:45 52.8 °F 27.3 °F 30.21 in ENE 1.0 mph 3.0 mph 37% 0.00 in 0.00 W/m2
02:50 52.7 °F 27.2 °F 30.21 in ENE 1.0 mph 2.0 mph 37% 0.00 in 0.00 W/m2
02:55 52.6 °F 27.1 °F 30.21 in Calm   2.0 mph 37% 0.00 in 0.00 W/m2
03:00 52.5 °F 27.0 °F 30.21 in SE 2.0 mph 4.0 mph 37% 0.00 in 0.00 W/m2
03:05 52.4 °F 26.9 °F 30.21 in Calm   2.0 mph 37% 0.00 in 0.00 W/m2
03:10 52.2 °F 27.4 °F 30.21 in Calm   1.0 mph 38% 0.00 in 0.00 W/m2
03:15 51.9 °F 27.7 °F 30.21 in Calm   1.0 mph 39% 0.00 in 0.00 W/m2
03:20 51.6 °F 27.5 °F 30.21 in Calm   1.0 mph 39% 0.00 in 0.00 W/m2
03:25 51.3 °F 27.2 °F 30.21 in Calm   1.0 mph 39% 0.00 in 0.00 W/m2
03:30 51.0 °F 27.5 °F 30.21 in Calm   1.0 mph 40% 0.00 in 0.00 W/m2
03:35 50.6 °F 27.8 °F 30.20 in Calm   1.0 mph 41% 0.00 in 0.00 W/m2
03:40 50.4 °F 27.6 °F 30.20 in Calm   1.0 mph 41% 0.00 in 0.00 W/m2
03:45 50.0 °F 27.2 °F 30.20 in Calm   1.0 mph 41% 0.00 in 0.00 W/m2
03:50 49.7 °F 27.0 °F 30.20 in Calm   1.0 mph 41% 0.00 in 0.00 W/m2
03:55 49.4 °F 26.7 °F 30.20 in Calm   2.0 mph 41% 0.00 in 0.00 W/m2
04:00 49.1 °F 27.0 °F 30.20 in Calm   3.0 mph 42% 0.00 in 0.00 W/m2
04:05 48.8 °F 26.7 °F 30.20 in Calm   1.0 mph 42% 0.00 in 0.00 W/m2
04:10 48.6 °F 26.6 °F 30.20 in Calm   1.0 mph 42% 0.00 in 0.00 W/m2
04:15 48.3 °F 26.3 °F 30.20 in Calm     42% 0.00 in 0.00 W/m2
04:20 48.2 °F 26.2 °F 30.20 in Calm   1.0 mph 42% 0.00 in 0.00 W/m2
04:25 48.0 °F 26.0 °F 30.20 in Calm   1.0 mph 42% 0.00 in 0.00 W/m2
04:30 47.8 °F 26.4 °F 30.20 in Calm   2.0 mph 43% 0.00 in 0.00 W/m2
04:35 47.7 °F 26.3 °F 30.20 in Calm   1.0 mph 43% 0.00 in 0.00 W/m2
04:40 47.7 °F 25.7 °F 30.20 in ESE 1.0 mph 3.0 mph 42% 0.00 in 0.00 W/m2
04:45 47.7 °F 26.3 °F 30.20 in Calm   2.0 mph 43% 0.00 in 0.00 W/m2
04:50 47.8 °F 25.3 °F 30.20 in ESE 1.0 mph 3.0 mph 41% 0.00 in 0.00 W/m2
04:55 48.1 °F 25.5 °F 30.20 in ESE 1.0 mph 3.0 mph 41% 0.00 in 0.00 W/m2
05:00 48.3 °F 26.3 °F 30.20 in East 1.0 mph 3.0 mph 42% 0.00 in 0.00 W/m2
05:05 48.4 °F 25.8 °F 30.20 in Calm   3.0 mph 41% 0.00 in 0.00 W/m2
05:10 48.5 °F 25.9 °F 30.20 in Calm   1.0 mph 41% 0.00 in 0.00 W/m2
05:15 48.5 °F 25.9 °F 30.20 in Calm   2.0 mph 41% 0.00 in 0.00 W/m2
05:20 48.5 °F 25.3 °F 30.20 in Calm   1.0 mph 40% 0.00 in 0.00 W/m2
05:25 48.5 °F 25.3 °F 30.20 in Calm   2.0 mph 40% 0.00 in 0.00 W/m2
05:30 48.5 °F 25.3 °F 30.21 in Calm   2.0 mph 40% 0.00 in 0.00 W/m2
05:35 48.4 °F 25.2 °F 30.21 in Calm   2.0 mph 40% 0.00 in 0.00 W/m2
05:40 48.3 °F 25.1 °F 30.21 in Calm   2.0 mph 40% 0.00 in 0.00 W/m2
05:45 48.3 °F 25.1 °F 30.21 in Calm   2.0 mph 40% 0.00 in 0.00 W/m2
05:50 48.3 °F 25.1 °F 30.21 in Calm   1.0 mph 40% 0.00 in 0.00 W/m2
05:55 48.2 °F 24.4 °F 30.21 in Calm   1.0 mph 39% 0.00 in 0.00 W/m2
06:00 48.2 °F 24.4 °F 30.21 in ESE 1.0 mph 3.0 mph 39% 0.00 in 0.00 W/m2
06:05 48.2 °F 24.4 °F 30.21 in Calm   2.0 mph 39% 0.00 in 0.00 W/m2
06:10 48.4 °F 25.2 °F 30.21 in ESE 1.0 mph 3.0 mph 40% 0.00 in 0.00 W/m2
06:15 48.5 °F 25.3 °F 30.21 in SE 1.0 mph 2.0 mph 40% 0.00 in 0.00 W/m2
06:20 48.7 °F 24.9 °F 30.21 in SE 1.0 mph 2.0 mph 39% 0.00 in 0.00 W/m2
06:25 48.9 °F 24.4 °F 30.21 in SE 1.0 mph 3.0 mph 38% 0.00 in 0.00 W/m2
06:30 49.1 °F 24.6 °F 30.21 in ESE 2.0 mph 3.0 mph 38% 0.00 in 0.00 W/m2
06:35 49.3 °F 24.8 °F 30.21 in SE 2.0 mph 3.0 mph 38% 0.00 in 0.00 W/m2
06:40 49.4 °F 24.9 °F 30.21 in SE 1.0 mph 4.0 mph 38% 0.00 in 0.00 W/m2
06:45 49.5 °F 25.0 °F 30.21 in SE 1.0 mph 3.0 mph 38% 0.00 in 3.00 W/m2
06:50 49.7 °F 24.5 °F 30.21 in SE 3.0 mph 6.0 mph 37% 0.00 in 9.00 W/m2
06:55 49.8 °F 25.2 °F 30.21 in SE 2.0 mph 4.0 mph 38% 0.00 in 17.00 W/m2
07:00 49.9 °F 24.7 °F 30.21 in SE 2.0 mph 4.0 mph 37% 0.00 in 24.00 W/m2
07:05 50.1 °F 24.9 °F 30.21 in SE 3.0 mph 5.0 mph 37% 0.00 in 30.00 W/m2
07:10 50.3 °F 25.0 °F 30.21 in SE 2.0 mph 4.0 mph 37% 0.00 in 38.00 W/m2
07:15 50.4 °F 25.1 °F 30.21 in SE 2.0 mph 4.0 mph 37% 0.00 in 43.00 W/m2
07:20 50.6 °F 25.3 °F 30.21 in SSE 2.0 mph 5.0 mph 37% 0.00 in 47.00 W/m2
07:25 50.8 °F 25.5 °F 30.21 in SE 3.0 mph 6.0 mph 37% 0.00 in 51.00 W/m2
07:30 51.0 °F 25.7 °F 30.21 in SE 3.0 mph 5.0 mph 37% 0.00 in 53.00 W/m2
07:35 51.2 °F 25.8 °F 30.21 in SE 2.0 mph 6.0 mph 37% 0.00 in 60.00 W/m2
07:40 51.4 °F 26.0 °F 30.21 in SSE 2.0 mph 5.0 mph 37% 0.00 in 65.00 W/m2
07:45 51.5 °F 26.1 °F 30.22 in SSE 2.0 mph 3.0 mph 37% 0.00 in 75.00 W/m2
07:50 51.6 °F 26.8 °F 30.22 in SSE 1.0 mph 3.0 mph 38% 0.00 in 102.00 W/m2
07:55 51.8 °F 26.4 °F 30.22 in SE 1.0 mph 3.0 mph 37% 0.00 in 104.00 W/m2
08:00 52.0 °F 27.2 °F 30.22 in SSE 1.0 mph 3.0 mph 38% 0.00 in 98.00 W/m2
08:05 52.2 °F 28.0 °F 30.22 in SSE 1.0 mph 3.0 mph 39% 0.00 in 128.00 W/m2
08:10 52.5 °F 27.6 °F 30.22 in SSE 2.0 mph 3.0 mph 38% 0.00 in 181.00 W/m2
08:15 52.9 °F 28.0 °F 30.22 in SE 2.0 mph 4.0 mph 38% 0.00 in 278.00 W/m2
08:20 53.4 °F 28.4 °F 30.22 in SE 1.0 mph 3.0 mph 38% 0.00 in 300.00 W/m2
08:25 53.9 °F 28.9 °F 30.23 in SE 1.0 mph 4.0 mph 38% 0.00 in 347.00 W/m2
08:30 54.5 °F 29.4 °F 30.23 in South 1.0 mph 4.0 mph 38% 0.00 in 349.00 W/m2
08:35 55.3 °F 29.5 °F 30.23 in SE 3.0 mph 5.0 mph 37% 0.00 in 332.00 W/m2
08:40 55.8 °F 30.6 °F 30.23 in SSE 2.0 mph 4.0 mph 38% 0.00 in 308.00 W/m2
08:45 56.2 °F 30.9 °F 30.23 in SE 2.0 mph 4.0 mph 38% 0.00 in 280.00 W/m2
08:50 56.6 °F 31.9 °F 30.24 in SE 1.0 mph 3.0 mph 39% 0.00 in 350.00 W/m2
08:55 57.0 °F 32.3 °F 30.24 in SSE 1.0 mph 3.0 mph 39% 0.00 in 365.00 W/m2
09:00 57.6 °F 32.8 °F 30.24 in South 1.0 mph 4.0 mph 39% 0.00 in 413.00 W/m2
09:05 58.3 °F 33.5 °F 30.24 in South 2.0 mph 4.0 mph 39% 0.00 in 389.00 W/m2
09:10 58.9 °F 33.3 °F 30.24 in SSE 3.0 mph 6.0 mph 38% 0.00 in 366.00 W/m2
09:15 59.4 °F 33.1 °F 30.24 in SSE 2.0 mph 6.0 mph 37% 0.00 in 369.00 W/m2
09:20 59.8 °F 33.5 °F 30.23 in SSE 3.0 mph 7.0 mph 37% 0.00 in 436.00 W/m2
09:25 60.4 °F 32.6 °F 30.24 in SSE 4.0 mph 7.0 mph 35% 0.00 in 503.00 W/m2
09:30 60.9 °F 34.5 °F 30.23 in SSE 4.0 mph 6.0 mph 37% 0.00 in 468.00 W/m2
09:35 61.3 °F 34.1 °F 30.23 in SSE 3.0 mph 6.0 mph 36% 0.00 in 458.00 W/m2
09:40 61.8 °F 33.9 °F 30.23 in SSE 4.0 mph 7.0 mph 35% 0.00 in 489.00 W/m2
09:45 62.2 °F 35.6 °F 30.23 in SSE 3.0 mph 6.0 mph 37% 0.00 in 516.00 W/m2
09:50 62.7 °F 36.1 °F 30.23 in SSE 3.0 mph 7.0 mph 37% 0.00 in 527.00 W/m2
09:55 63.2 °F 34.4 °F 30.23 in South 2.0 mph 6.0 mph 34% 0.00 in 531.00 W/m2
10:00 63.8 °F 35.6 °F 30.23 in South 4.0 mph 7.0 mph 35% 0.00 in 581.00 W/m2
10:05 64.3 °F 34.6 °F 30.23 in SSE 4.0 mph 8.0 mph 33% 0.00 in 572.00 W/m2
10:10 64.7 °F 37.8 °F 30.23 in SSE 3.0 mph 7.0 mph 37% 0.00 in 573.00 W/m2
10:15 65.2 °F 36.9 °F 30.23 in South 4.0 mph 8.0 mph 35% 0.00 in 602.00 W/m2
10:20 65.7 °F 37.3 °F 30.23 in SSE 3.0 mph 5.0 mph 35% 0.00 in 615.00 W/m2
10:25 66.1 °F 37.6 °F 30.23 in SSE 4.0 mph 7.0 mph 35% 0.00 in 643.00 W/m2
10:30 66.7 °F 37.4 °F 30.23 in SW 3.0 mph 6.0 mph 34% 0.00 in 591.00 W/m2
10:35 67.1 °F 37.0 °F 30.24 in SW 3.0 mph 7.0 mph 33% 0.00 in 564.00 W/m2
10:40 67.4 °F 38.8 °F 30.23 in South 3.0 mph 5.0 mph 35% 0.00 in 546.00 W/m2
10:45 67.7 °F 37.6 °F 30.23 in SSE 4.0 mph 9.0 mph 33% 0.00 in 589.00 W/m2
10:50 67.9 °F 38.5 °F 30.23 in SSE 3.0 mph 8.0 mph 34% 0.00 in 618.00 W/m2
10:55 68.1 °F 38.7 °F 30.23 in South 3.0 mph 8.0 mph 34% 0.00 in 676.00 W/m2
11:00 68.5 °F 39.0 °F 30.23 in SSE 3.0 mph 7.0 mph 34% 0.00 in 635.00 W/m2
11:05 68.9 °F 38.6 °F 30.23 in SSW 2.0 mph 8.0 mph 33% 0.00 in 696.00 W/m2
11:10 69.3 °F 39.0 °F 30.23 in SW 3.0 mph 9.0 mph 33% 0.00 in 743.00 W/m2
11:15 69.7 °F 40.1 °F 30.23 in West 2.0 mph 5.0 mph 34% 0.00 in 759.00 W/m2
11:20 70.2 °F 39.7 °F 30.23 in SW 1.0 mph 3.0 mph 33% 0.00 in 799.00 W/m2
11:25 70.7 °F 40.9 °F 30.23 in SSW 2.0 mph 6.0 mph 34% 0.00 in 862.00 W/m2
11:30 71.3 °F 39.9 °F 30.22 in South 4.0 mph 8.0 mph 32% 0.00 in 749.00 W/m2
11:35 71.7 °F 41.0 °F 30.23 in WSW 2.0 mph 5.0 mph 33% 0.00 in 717.00 W/m2
11:40 72.0 °F 41.3 °F 30.22 in West 2.0 mph 7.0 mph 33% 0.00 in 591.00 W/m2
11:45 72.1 °F 39.8 °F 30.22 in West 2.0 mph 6.0 mph 31% 0.00 in 667.00 W/m2
11:50 72.2 °F 40.7 °F 30.22 in WSW 2.0 mph 6.0 mph 32% 0.00 in 501.00 W/m2
11:55 72.0 °F 38.9 °F 30.21 in WSW 4.0 mph 8.0 mph 30% 0.00 in 416.00 W/m2
12:00 71.7 °F 40.3 °F 30.21 in WSW 2.0 mph 6.0 mph 32% 0.00 in 411.00 W/m2
12:05 71.4 °F 39.2 °F 30.21 in WSW 3.0 mph 5.0 mph 31% 0.00 in 453.00 W/m2
12:10 71.2 °F 40.6 °F 30.20 in West 3.0 mph 5.0 mph 33% 0.00 in 544.00 W/m2
12:15 71.2 °F 39.8 °F 30.20 in WSW 2.0 mph 6.0 mph 32% 0.00 in 594.00 W/m2
12:20 71.3 °F 39.1 °F 30.20 in SW 3.0 mph 7.0 mph 31% 0.00 in 504.00 W/m2
12:25 71.4 °F 41.6 °F 30.20 in WNW 3.0 mph 7.0 mph 34% 0.00 in 590.00 W/m2
12:30 71.6 °F 41.7 °F 30.20 in WNW 3.0 mph 8.0 mph 34% 0.00 in 597.00 W/m2
12:35 71.8 °F 39.5 °F 30.20 in WSW 4.0 mph 9.0 mph 31% 0.00 in 714.00 W/m2
12:40 72.0 °F 40.5 °F 30.20 in WNW 5.0 mph 13.0 mph 32% 0.00 in 703.00 W/m2
12:45 72.0 °F 40.5 °F 30.20 in West 6.0 mph 13.0 mph 32% 0.00 in 627.00 W/m2
12:50 72.1 °F 41.4 °F 30.19 in West 5.0 mph 9.0 mph 33% 0.00 in 723.00 W/m2
12:55 72.2 °F 39.9 °F 30.19 in SW 3.0 mph 7.0 mph 31% 0.00 in 700.00 W/m2
13:00 72.3 °F 42.3 °F 30.18 in SW 2.0 mph 6.0 mph 34% 0.00 in 570.00 W/m2
13:05 72.2 °F 39.0 °F 30.18 in WSW 4.0 mph 7.0 mph 30% 0.00 in 591.00 W/m2
13:10 72.2 °F 41.5 °F 30.18 in West 3.0 mph 7.0 mph 33% 0.00 in 442.00 W/m2
13:15 72.1 °F 40.6 °F 30.18 in West 4.0 mph 10.0 mph 32% 0.00 in 370.00 W/m2
13:20 72.0 °F 42.8 °F 30.17 in WNW 3.0 mph 7.0 mph 35% 0.00 in 372.00 W/m2
13:25 71.9 °F 41.2 °F 30.17 in West 4.0 mph 7.0 mph 33% 0.00 in 380.00 W/m2
13:30 71.9 °F 43.5 °F 30.17 in SW 3.0 mph 6.0 mph 36% 0.00 in 385.00 W/m2
13:35 71.9 °F 42.0 °F 30.16 in WNW 5.0 mph 8.0 mph 34% 0.00 in 400.00 W/m2
13:40 72.0 °F 42.1 °F 30.16 in West 2.0 mph 5.0 mph 34% 0.00 in 382.00 W/m2
13:45 72.1 °F 42.2 °F 30.15 in West 4.0 mph 10.0 mph 34% 0.00 in 362.00 W/m2
13:50 72.1 °F 40.6 °F 30.15 in SSW 3.0 mph 10.0 mph 32% 0.00 in 337.00 W/m2
13:55 72.0 °F 42.1 °F 30.14 in SSE 2.0 mph 6.0 mph 34% 0.00 in 340.00 W/m2
14:00 71.9 °F 41.2 °F 30.14 in West 3.0 mph 6.0 mph 33% 0.00 in 320.00 W/m2
14:05 71.7 °F 42.6 °F 30.14 in West 3.0 mph 6.0 mph 35% 0.00 in 244.00 W/m2
14:10 71.7 °F 43.3 °F 30.14 in SSE 3.0 mph 10.0 mph 36% 0.00 in 171.00 W/m2
14:15 71.7 °F 42.6 °F 30.14 in West 4.0 mph 8.0 mph 35% 0.00 in 132.00 W/m2
14:20 71.7 °F 43.3 °F 30.13 in WNW 3.0 mph 7.0 mph 36% 0.00 in 133.00 W/m2
14:25 71.7 °F 41.8 °F 30.13 in WNW 2.0 mph 4.0 mph 34% 0.00 in 115.00 W/m2
14:30 71.7 °F 42.6 °F 30.12 in SSE 5.0 mph 12.0 mph 35% 0.00 in 144.00 W/m2
14:35 71.7 °F 43.3 °F 30.12 in SSW 4.0 mph 15.0 mph 36% 0.00 in 116.00 W/m2
14:40 71.8 °F 41.1 °F 30.12 in SSE 4.0 mph 8.0 mph 33% 0.00 in 92.00 W/m2
14:45 71.9 °F 40.4 °F 30.12 in South 5.0 mph 12.0 mph 32% 0.00 in 184.00 W/m2
14:50 71.9 °F 40.4 °F 30.12 in South 3.0 mph 7.0 mph 32% 0.00 in 119.00 W/m2
14:55 72.0 °F 40.5 °F 30.11 in NW 1.0 mph 5.0 mph 32% 0.00 in 101.00 W/m2
15:00 72.0 °F 40.5 °F 30.11 in South 5.0 mph 10.0 mph 32% 0.00 in 86.00 W/m2
15:05 71.8 °F 39.5 °F 30.11 in SE 7.0 mph 14.0 mph 31% 0.00 in 94.00 W/m2
15:10 71.7 °F 40.3 °F 30.10 in SW 6.0 mph 11.0 mph 32% 0.00 in 160.00 W/m2
15:15 72.1 °F 41.4 °F 30.10 in WSW 2.0 mph 6.0 mph 33% 0.00 in 416.00 W/m2
15:20 72.5 °F 40.1 °F 30.10 in SW 4.0 mph 9.0 mph 31% 0.00 in 688.00 W/m2
Albertville, Alabama, USA
Compliments of Weather Underground - 4 mb